PWSweather.com
Personal Weather Stations
Station Observations
IFREISTO2
Freiston, FreistonGB PE22 0QJ

FreistonFreistonGB PE22 0QJ

Lat: 52.964, Lon: 0.041

Elevation: 16

Station Type: Fine Offset

http://www.midlifedad.me.uk/weather

High Low Average
Temperature 70.9°F21.6°C 37.2°F2.9°C 54.6°F12.6°C
Dew Point 51.3°F10.7°C 34.6°F1.4°C 44.9°F7.2°C
Winds 8.2 mph 13.2 kmh Calm Calm 2.0 mph WNW3.2 kmh WNW
Wind Gusts 13.0 mph20.9 kmh -- 5.0 mph8.0 kmh
Humidity 96% 42% 73%
Pressure 30.14 in1020.7 mb 29.94 in1013.9 mb -
Precipitation 0.01 in0.3 mm - -
Hour Temp Dew Point Humidity Winds Wind Gusts Pressure Precip Precip Rate Daily Precip Total
12:00 AM 43.9°F6.6°C 40.8°F4.9°C 89% 1.3 mph WNW2.1 kmh WNW 4.5 mph7.2 kmh 30.14 in1020.7 mb 0.00 in0.0 mm 0.00 in0.0 mm 0.00 in0.0 mm
12:05 AM 43.9°F6.6°C 41.1°F5.1°C 90% 1.5 mph WNW2.4 kmh WNW 4.5 mph7.2 kmh 30.13 in1020.3 mb 0.00 in0.0 mm 0.00 in0.0 mm 0.00 in0.0 mm
12:10 AM 43.7°F6.5°C 41.0°F5.0°C 90% 1.3 mph WNW2.1 kmh WNW 4.5 mph7.2 kmh 30.13 in1020.3 mb 0.00 in0.0 mm 0.00 in0.0 mm 0.00 in0.0 mm
12:15 AM 43.5°F6.4°C 40.8°F4.9°C 90% 1.1 mph WNW1.8 kmh WNW 3.8 mph6.1 kmh 30.13 in1020.3 mb 0.00 in0.0 mm 0.00 in0.0 mm 0.00 in0.0 mm
12:20 AM 43.3°F6.3°C 40.6°F4.8°C 90% 0.8 mph W1.3 kmh W 2.2 mph3.5 kmh 30.13 in1020.3 mb 0.00 in0.0 mm 0.00 in0.0 mm 0.00 in0.0 mm
12:25 AM 43.3°F6.3°C 40.6°F4.8°C 90% 0.8 mph W1.3 kmh W 3.8 mph6.1 kmh 30.13 in1020.3 mb 0.00 in0.0 mm 0.00 in0.0 mm 0.00 in0.0 mm
12:30 AM 43.2°F6.2°C 40.4°F4.7°C 90% 1.1 mph NW1.8 kmh NW 3.8 mph6.1 kmh 30.13 in1020.3 mb 0.00 in0.0 mm 0.00 in0.0 mm 0.00 in0.0 mm
12:35 AM 43.2°F6.2°C 40.4°F4.7°C 90% 1.4 mph NW2.3 kmh NW 3.1 mph5.0 kmh 30.13 in1020.3 mb 0.00 in0.0 mm 0.00 in0.0 mm 0.00 in0.0 mm
12:40 AM 43.2°F6.2°C 40.4°F4.7°C 90% 1.1 mph WNW1.8 kmh WNW 3.1 mph5.0 kmh 30.12 in1020.0 mb 0.00 in0.0 mm 0.00 in0.0 mm 0.00 in0.0 mm
12:45 AM 43.0°F6.1°C 40.2°F4.6°C 90% 0.7 mph NW1.1 kmh NW 2.2 mph3.5 kmh 30.12 in1020.0 mb 0.00 in0.0 mm 0.00 in0.0 mm 0.00 in0.0 mm
12:50 AM 42.8°F6.0°C 40.1°F4.5°C 90% 0.8 mph WNW1.3 kmh WNW 3.1 mph5.0 kmh 30.12 in1020.0 mb 0.00 in0.0 mm 0.00 in0.0 mm 0.00 in0.0 mm
12:55 AM 42.6°F5.9°C 40.2°F4.6°C 91% 1.0 mph W1.6 kmh W 3.1 mph5.0 kmh 30.11 in1019.6 mb 0.00 in0.0 mm 0.00 in0.0 mm 0.00 in0.0 mm
01:00 AM 42.6°F5.9°C 40.2°F4.6°C 91% 0.9 mph WNW1.4 kmh WNW 3.8 mph6.1 kmh 30.11 in1019.6 mb 0.00 in0.0 mm 0.00 in0.0 mm 0.00 in0.0 mm
01:05 AM 42.4°F5.8°C 40.0°F4.4°C 91% 0.8 mph W1.3 kmh W 3.8 mph6.1 kmh 30.11 in1019.6 mb 0.00 in0.0 mm 0.00 in0.0 mm 0.00 in0.0 mm
01:10 AM 42.3°F5.7°C 39.8°F4.3°C 91% 0.7 mph WSW1.1 kmh WSW 3.1 mph5.0 kmh 30.11 in1019.6 mb 0.00 in0.0 mm 0.00 in0.0 mm 0.00 in0.0 mm
01:15 AM 42.3°F5.7°C 39.8°F4.3°C 91% 1.0 mph WSW1.6 kmh WSW 5.4 mph8.7 kmh 30.11 in1019.6 mb 0.00 in0.0 mm 0.00 in0.0 mm 0.00 in0.0 mm
01:20 AM 42.1°F5.6°C 39.6°F4.2°C 91% 1.4 mph WSW2.3 kmh WSW 5.4 mph8.7 kmh 30.11 in1019.6 mb 0.00 in0.0 mm 0.00 in0.0 mm 0.00 in0.0 mm
01:25 AM 42.1°F5.6°C 39.6°F4.2°C 91% 1.2 mph WSW1.9 kmh WSW 4.5 mph7.2 kmh 30.11 in1019.6 mb 0.00 in0.0 mm 0.00 in0.0 mm 0.00 in0.0 mm
01:30 AM 41.9°F5.5°C 39.5°F4.2°C 91% 0.8 mph WSW1.3 kmh WSW 4.5 mph7.2 kmh 30.11 in1019.6 mb 0.00 in0.0 mm 0.00 in0.0 mm 0.00 in0.0 mm
01:35 AM 41.7°F5.4°C 39.3°F4.1°C 91% 0.5 mph WSW0.8 kmh WSW 3.1 mph5.0 kmh 30.11 in1019.6 mb 0.00 in0.0 mm 0.00 in0.0 mm 0.00 in0.0 mm
01:40 AM 41.4°F5.2°C 38.9°F3.8°C 91% 0.4 mph WSW0.6 kmh WSW 3.1 mph5.0 kmh 30.11 in1019.6 mb 0.00 in0.0 mm 0.00 in0.0 mm 0.00 in0.0 mm
01:45 AM 41.2°F5.1°C 38.8°F3.8°C 91% 0.5 mph WNW0.8 kmh WNW 2.2 mph3.5 kmh 30.10 in1019.3 mb 0.00 in0.0 mm 0.00 in0.0 mm 0.00 in0.0 mm
01:50 AM 41.2°F5.1°C 38.8°F3.8°C 91% 0.8 mph W1.3 kmh W 3.8 mph6.1 kmh 30.10 in1019.3 mb 0.00 in0.0 mm 0.00 in0.0 mm 0.00 in0.0 mm
01:55 AM 41.0°F5.0°C 38.6°F3.7°C 91% 0.8 mph WNW1.3 kmh WNW 3.8 mph6.1 kmh 30.10 in1019.3 mb 0.00 in0.0 mm 0.00 in0.0 mm 0.00 in0.0 mm
02:00 AM 40.8°F4.9°C 38.7°F3.7°C 92% 0.6 mph WNW1.0 kmh WNW 2.2 mph3.5 kmh 30.10 in1019.3 mb 0.00 in0.0 mm 0.00 in0.0 mm 0.00 in0.0 mm
02:05 AM 40.6°F4.8°C 38.5°F3.6°C 92% 0.7 mph W1.1 kmh W 2.2 mph3.5 kmh 30.10 in1019.3 mb 0.00 in0.0 mm 0.00 in0.0 mm 0.00 in0.0 mm
02:10 AM 40.5°F4.7°C 38.3°F3.5°C 92% 0.7 mph WSW1.1 kmh WSW 3.1 mph5.0 kmh 30.10 in1019.3 mb 0.00 in0.0 mm 0.00 in0.0 mm 0.00 in0.0 mm
02:15 AM 40.3°F4.6°C 38.1°F3.4°C 92% 0.4 mph W0.6 kmh W 3.1 mph5.0 kmh 30.10 in1019.3 mb 0.00 in0.0 mm 0.00 in0.0 mm 0.00 in0.0 mm
02:20 AM 40.1°F4.5°C 38.0°F3.3°C 92% 0.1 mph WNW0.2 kmh WNW 3.1 mph5.0 kmh 30.09 in1019.0 mb 0.00 in0.0 mm 0.00 in0.0 mm 0.00 in0.0 mm
02:25 AM 39.9°F4.4°C 37.8°F3.2°C 92% 0.3 mph W0.5 kmh W 3.1 mph5.0 kmh 30.09 in1019.0 mb 0.00 in0.0 mm 0.00 in0.0 mm 0.00 in0.0 mm
02:30 AM 39.9°F4.4°C 38.1°F3.4°C 93% 0.6 mph WSW1.0 kmh WSW 3.1 mph5.0 kmh 30.09 in1019.0 mb 0.00 in0.0 mm 0.00 in0.0 mm 0.00 in0.0 mm
02:35 AM 39.7°F4.3°C 37.9°F3.3°C 93% 0.5 mph W0.8 kmh W 3.1 mph5.0 kmh 30.09 in1019.0 mb 0.00 in0.0 mm 0.00 in0.0 mm 0.00 in0.0 mm
02:40 AM 39.6°F4.2°C 37.7°F3.2°C 93% 0.2 mph WNW0.3 kmh WNW 2.2 mph3.5 kmh 30.09 in1019.0 mb 0.00 in0.0 mm 0.00 in0.0 mm 0.00 in0.0 mm
02:45 AM 39.4°F4.1°C 37.5°F3.1°C 93% 0.1 mph WNW0.2 kmh WNW 1.6 mph2.6 kmh 30.09 in1019.0 mb 0.00 in0.0 mm 0.00 in0.0 mm 0.00 in0.0 mm
02:50 AM 39.2°F4.0°C 37.3°F2.9°C 93% Calm Calm 1.6 mph2.6 kmh 30.09 in1019.0 mb 0.00 in0.0 mm 0.00 in0.0 mm 0.00 in0.0 mm
02:55 AM 39.2°F4.0°C 37.3°F2.9°C 93% Calm Calm 1.6 mph2.6 kmh 30.09 in1019.0 mb 0.00 in0.0 mm 0.00 in0.0 mm 0.00 in0.0 mm
03:00 AM 39.0°F3.9°C 37.4°F3.0°C 94% Calm Calm 0.7 mph1.1 kmh 30.09 in1019.0 mb 0.00 in0.0 mm 0.00 in0.0 mm 0.00 in0.0 mm
03:05 AM 39.0°F3.9°C 37.4°F3.0°C 94% Calm Calm 0.7 mph1.1 kmh 30.08 in1018.6 mb 0.00 in0.0 mm 0.00 in0.0 mm 0.00 in0.0 mm
03:10 AM 38.8°F3.8°C 37.3°F2.9°C 94% Calm Calm 0.7 mph1.1 kmh 30.08 in1018.6 mb 0.00 in0.0 mm 0.00 in0.0 mm 0.00 in0.0 mm
03:15 AM 38.7°F3.7°C 37.1°F2.8°C 94% Calm Calm 0.7 mph1.1 kmh 30.08 in1018.6 mb 0.00 in0.0 mm 0.00 in0.0 mm 0.00 in0.0 mm
03:20 AM 38.5°F3.6°C 36.9°F2.7°C 94% Calm Calm 0.7 mph1.1 kmh 30.08 in1018.6 mb 0.00 in0.0 mm 0.00 in0.0 mm 0.00 in0.0 mm
03:25 AM 38.3°F3.5°C 36.7°F2.6°C 94% Calm Calm 0.7 mph1.1 kmh 30.08 in1018.6 mb 0.00 in0.0 mm 0.00 in0.0 mm 0.00 in0.0 mm
03:30 AM 38.5°F3.6°C 36.9°F2.7°C 94% Calm Calm 2.2 mph3.5 kmh 30.08 in1018.6 mb 0.00 in0.0 mm 0.00 in0.0 mm 0.00 in0.0 mm
03:35 AM 38.5°F3.6°C 36.9°F2.7°C 94% 0.1 mph WNW0.2 kmh WNW 2.2 mph3.5 kmh 30.08 in1018.6 mb 0.00 in0.0 mm 0.00 in0.0 mm 0.00 in0.0 mm
03:40 AM 38.5°F3.6°C 36.9°F2.7°C 94% Calm Calm 0.7 mph1.1 kmh 30.07 in1018.3 mb 0.00 in0.0 mm 0.00 in0.0 mm 0.00 in0.0 mm
03:45 AM 38.5°F3.6°C 36.9°F2.7°C 94% Calm Calm -- 30.07 in1018.3 mb 0.00 in0.0 mm 0.00 in0.0 mm 0.00 in0.0 mm
03:50 AM 38.3°F3.5°C 36.7°F2.6°C 94% Calm Calm -- 30.08 in1018.6 mb 0.00 in0.0 mm 0.00 in0.0 mm 0.00 in0.0 mm
03:55 AM 38.3°F3.5°C 36.7°F2.6°C 94% Calm Calm -- 30.07 in1018.3 mb 0.00 in0.0 mm 0.00 in0.0 mm 0.00 in0.0 mm
04:00 AM 38.3°F3.5°C 36.7°F2.6°C 94% Calm Calm -- 30.07 in1018.3 mb 0.00 in0.0 mm 0.00 in0.0 mm 0.00 in0.0 mm
04:05 AM 38.3°F3.5°C 36.7°F2.6°C 94% Calm Calm -- 30.07 in1018.3 mb 0.00 in0.0 mm 0.00 in0.0 mm 0.00 in0.0 mm
04:10 AM 38.1°F3.4°C 36.5°F2.5°C 94% Calm Calm -- 30.07 in1018.3 mb 0.00 in0.0 mm 0.00 in0.0 mm 0.00 in0.0 mm
04:15 AM 37.9°F3.3°C 36.6°F2.6°C 95% Calm Calm -- 30.07 in1018.3 mb 0.00 in0.0 mm 0.00 in0.0 mm 0.00 in0.0 mm
04:20 AM 37.6°F3.1°C 36.0°F2.2°C 94% Calm Calm 1.6 mph2.6 kmh 30.07 in1018.3 mb 0.00 in0.0 mm 0.00 in0.0 mm 0.00 in0.0 mm
04:25 AM 37.2°F2.9°C 34.6°F1.4°C 90% 0.6 mph SW1.0 kmh SW 2.2 mph3.5 kmh 30.07 in1018.3 mb 0.00 in0.0 mm 0.00 in0.0 mm 0.00 in0.0 mm
04:30 AM 37.4°F3.0°C 35.8°F2.1°C 94% 0.8 mph WSW1.3 kmh WSW 2.2 mph3.5 kmh 30.07 in1018.3 mb 0.00 in0.0 mm 0.00 in0.0 mm 0.00 in0.0 mm
04:35 AM 37.6°F3.1°C 36.3°F2.4°C 95% 0.2 mph W0.3 kmh W 2.2 mph3.5 kmh 30.07 in1018.3 mb 0.00 in0.0 mm 0.00 in0.0 mm 0.00 in0.0 mm
04:40 AM 37.6°F3.1°C 36.3°F2.4°C 95% 0.2 mph WSW0.3 kmh WSW 1.6 mph2.6 kmh 30.07 in1018.3 mb 0.00 in0.0 mm 0.00 in0.0 mm 0.00 in0.0 mm
04:45 AM 37.6°F3.1°C 36.3°F2.4°C 95% 0.1 mph WSW0.2 kmh WSW 1.6 mph2.6 kmh 30.07 in1018.3 mb 0.00 in0.0 mm 0.00 in0.0 mm 0.00 in0.0 mm
04:50 AM 37.6°F3.1°C 36.3°F2.4°C 95% Calm Calm 0.7 mph1.1 kmh 30.07 in1018.3 mb 0.00 in0.0 mm 0.00 in0.0 mm 0.00 in0.0 mm
04:55 AM 37.6°F3.1°C 36.3°F2.4°C 95% Calm Calm 1.6 mph2.6 kmh 30.07 in1018.3 mb 0.00 in0.0 mm 0.00 in0.0 mm 0.00 in0.0 mm
05:00 AM 37.9°F3.3°C 36.6°F2.6°C 95% Calm Calm 1.6 mph2.6 kmh 30.07 in1018.3 mb 0.00 in0.0 mm 0.00 in0.0 mm 0.00 in0.0 mm
05:05 AM 38.1°F3.4°C 36.8°F2.7°C 95% Calm Calm 1.6 mph2.6 kmh 30.06 in1017.9 mb 0.00 in0.0 mm 0.00 in0.0 mm 0.00 in0.0 mm
05:10 AM 38.1°F3.4°C 36.8°F2.7°C 95% Calm Calm 0.7 mph1.1 kmh 30.07 in1018.3 mb 0.00 in0.0 mm 0.00 in0.0 mm 0.00 in0.0 mm
05:15 AM 38.3°F3.5°C 37.0°F2.8°C 95% Calm Calm 0.7 mph1.1 kmh 30.07 in1018.3 mb 0.00 in0.0 mm 0.00 in0.0 mm 0.00 in0.0 mm
05:20 AM 38.5°F3.6°C 37.2°F2.9°C 95% Calm Calm 0.7 mph1.1 kmh 30.07 in1018.3 mb 0.00 in0.0 mm 0.00 in0.0 mm 0.00 in0.0 mm
05:25 AM 39.0°F3.9°C 38.0°F3.3°C 96% Calm Calm 0.7 mph1.1 kmh 30.06 in1017.9 mb 0.00 in0.0 mm 0.00 in0.0 mm 0.00 in0.0 mm
05:30 AM 39.7°F4.3°C 38.4°F3.6°C 95% Calm Calm 0.7 mph1.1 kmh 30.07 in1018.3 mb 0.00 in0.0 mm 0.00 in0.0 mm 0.00 in0.0 mm
05:35 AM 40.5°F4.7°C 39.1°F3.9°C 95% 0.1 mph NNW0.2 kmh NNW 1.6 mph2.6 kmh 30.07 in1018.3 mb 0.00 in0.0 mm 0.00 in0.0 mm 0.00 in0.0 mm
05:40 AM 41.4°F5.2°C 40.0°F4.4°C 95% 0.1 mph W0.2 kmh W 1.6 mph2.6 kmh 30.07 in1018.3 mb 0.00 in0.0 mm 0.00 in0.0 mm 0.00 in0.0 mm
05:45 AM 42.4°F5.8°C 41.1°F5.1°C 95% Calm Calm 1.6 mph2.6 kmh 30.07 in1018.3 mb 0.00 in0.0 mm 0.00 in0.0 mm 0.00 in0.0 mm
05:50 AM 43.2°F6.2°C 41.8°F5.4°C 95% 0.1 mph WSW0.2 kmh WSW 2.2 mph3.5 kmh 30.07 in1018.3 mb 0.00 in0.0 mm 0.00 in0.0 mm 0.00 in0.0 mm
05:55 AM 44.1°F6.7°C 42.7°F5.9°C 95% 0.4 mph SW0.6 kmh SW 2.2 mph3.5 kmh 30.07 in1018.3 mb 0.00 in0.0 mm 0.00 in0.0 mm 0.00 in0.0 mm
06:00 AM 44.8°F7.1°C 43.4°F6.3°C 95% 1.0 mph SW1.6 kmh SW 3.1 mph5.0 kmh 30.06 in1017.9 mb 0.00 in0.0 mm 0.00 in0.0 mm 0.00 in0.0 mm
06:05 AM 45.1°F7.3°C 43.8°F6.6°C 95% 0.9 mph SW1.4 kmh SW 3.1 mph5.0 kmh 30.06 in1017.9 mb 0.00 in0.0 mm 0.00 in0.0 mm 0.00 in0.0 mm
06:10 AM 45.9°F7.7°C 44.5°F6.9°C 95% 0.9 mph WSW1.4 kmh WSW 3.8 mph6.1 kmh 30.06 in1017.9 mb 0.00 in0.0 mm 0.00 in0.0 mm 0.00 in0.0 mm
06:15 AM 46.4°F8.0°C 45.0°F7.2°C 95% 0.9 mph WSW1.4 kmh WSW 3.8 mph6.1 kmh 30.06 in1017.9 mb 0.00 in0.0 mm 0.00 in0.0 mm 0.00 in0.0 mm
06:20 AM 46.8°F8.2°C 45.4°F7.4°C 95% 0.7 mph W1.1 kmh W 2.2 mph3.5 kmh 30.06 in1017.9 mb 0.00 in0.0 mm 0.00 in0.0 mm 0.00 in0.0 mm
06:25 AM 47.3°F8.5°C 46.2°F7.9°C 96% 0.8 mph W1.3 kmh W 2.2 mph3.5 kmh 30.06 in1017.9 mb 0.00 in0.0 mm 0.00 in0.0 mm 0.00 in0.0 mm
06:30 AM 48.6°F9.2°C 47.2°F8.4°C 95% 0.6 mph WNW1.0 kmh WNW 3.8 mph6.1 kmh 30.06 in1017.9 mb 0.00 in0.0 mm 0.00 in0.0 mm 0.00 in0.0 mm
06:35 AM 49.5°F9.7°C 48.1°F8.9°C 95% 0.5 mph W0.8 kmh W 3.8 mph6.1 kmh 30.06 in1017.9 mb 0.00 in0.0 mm 0.00 in0.0 mm 0.00 in0.0 mm
06:40 AM 50.0°F10.0°C 48.3°F9.1°C 94% 0.3 mph W0.5 kmh W 3.1 mph5.0 kmh 30.06 in1017.9 mb 0.00 in0.0 mm 0.00 in0.0 mm 0.00 in0.0 mm
06:45 AM 50.4°F10.2°C 48.7°F9.3°C 94% 0.7 mph W1.1 kmh W 3.1 mph5.0 kmh 30.06 in1017.9 mb 0.00 in0.0 mm 0.00 in0.0 mm 0.00 in0.0 mm
06:50 AM 50.0°F10.0°C 48.1°F8.9°C 93% 1.8 mph NW2.9 kmh NW 4.5 mph7.2 kmh 30.06 in1017.9 mb 0.00 in0.0 mm 0.00 in0.0 mm 0.00 in0.0 mm
06:55 AM 50.0°F10.0°C 48.1°F8.9°C 93% 2.1 mph NW3.4 kmh NW 4.5 mph7.2 kmh 30.06 in1017.9 mb 0.00 in0.0 mm 0.00 in0.0 mm 0.00 in0.0 mm
07:00 AM 50.7°F10.4°C 48.5°F9.2°C 92% 1.5 mph WNW2.4 kmh WNW 4.5 mph7.2 kmh 30.06 in1017.9 mb 0.00 in0.0 mm 0.00 in0.0 mm 0.00 in0.0 mm
07:05 AM 51.1°F10.6°C 48.5°F9.2°C 91% 2.2 mph WSW3.5 kmh WSW 5.4 mph8.7 kmh 30.06 in1017.9 mb 0.00 in0.0 mm 0.00 in0.0 mm 0.00 in0.0 mm
07:10 AM 51.1°F10.6°C 48.2°F9.0°C 90% 3.1 mph W5.0 kmh W 5.4 mph8.7 kmh 30.06 in1017.9 mb 0.00 in0.0 mm 0.00 in0.0 mm 0.00 in0.0 mm
07:15 AM 50.7°F10.4°C 47.3°F8.5°C 88% 2.9 mph NNW4.7 kmh NNW 5.4 mph8.7 kmh 30.06 in1017.9 mb 0.00 in0.0 mm 0.00 in0.0 mm 0.00 in0.0 mm
07:20 AM 50.5°F10.3°C 46.8°F8.2°C 87% 2.2 mph NW3.5 kmh NW 5.4 mph8.7 kmh 30.06 in1017.9 mb 0.00 in0.0 mm 0.00 in0.0 mm 0.00 in0.0 mm
07:25 AM 51.1°F10.6°C 47.3°F8.5°C 87% 1.6 mph W2.6 kmh W 3.8 mph6.1 kmh 30.05 in1017.6 mb 0.00 in0.0 mm 0.00 in0.0 mm 0.00 in0.0 mm
07:30 AM 52.0°F11.1°C 47.9°F8.8°C 86% 1.4 mph NNW2.3 kmh NNW 3.8 mph6.1 kmh 30.06 in1017.9 mb 0.00 in0.0 mm 0.00 in0.0 mm 0.00 in0.0 mm
07:35 AM 53.1°F11.7°C 49.0°F9.4°C 86% 1.1 mph N1.8 kmh N 3.8 mph6.1 kmh 30.06 in1017.9 mb 0.00 in0.0 mm 0.00 in0.0 mm 0.00 in0.0 mm
07:40 AM 54.1°F12.3°C 49.4°F9.7°C 84% 0.9 mph NNW1.4 kmh NNW 3.8 mph6.1 kmh 30.06 in1017.9 mb 0.00 in0.0 mm 0.00 in0.0 mm 0.00 in0.0 mm
07:45 AM 54.5°F12.5°C 49.1°F9.5°C 82% 1.4 mph NNW2.3 kmh NNW 3.8 mph6.1 kmh 30.06 in1017.9 mb 0.00 in0.0 mm 0.00 in0.0 mm 0.00 in0.0 mm
07:50 AM 54.7°F12.6°C 49.0°F9.4°C 81% 1.9 mph N3.1 kmh N 4.5 mph7.2 kmh 30.06 in1017.9 mb 0.00 in0.0 mm 0.00 in0.0 mm 0.00 in0.0 mm
07:55 AM 54.5°F12.5°C 48.5°F9.2°C 80% 1.6 mph N2.6 kmh N 4.5 mph7.2 kmh 30.05 in1017.6 mb 0.00 in0.0 mm 0.00 in0.0 mm 0.00 in0.0 mm
08:00 AM 55.6°F13.1°C 49.2°F9.6°C 79% 1.1 mph NW1.8 kmh NW 3.1 mph5.0 kmh 30.06 in1017.9 mb 0.00 in0.0 mm 0.00 in0.0 mm 0.00 in0.0 mm
08:05 AM 55.9°F13.3°C 49.2°F9.6°C 78% 1.3 mph NNW2.1 kmh NNW 3.1 mph5.0 kmh 30.06 in1017.9 mb 0.00 in0.0 mm 0.00 in0.0 mm 0.00 in0.0 mm
08:10 AM 55.6°F13.1°C 48.1°F8.9°C 76% 1.1 mph N1.8 kmh N 3.1 mph5.0 kmh 30.06 in1017.9 mb 0.00 in0.0 mm 0.00 in0.0 mm 0.00 in0.0 mm
08:15 AM 55.8°F13.2°C 48.3°F9.1°C 76% 0.8 mph NW1.3 kmh NW 3.1 mph5.0 kmh 30.05 in1017.6 mb 0.00 in0.0 mm 0.00 in0.0 mm 0.00 in0.0 mm
08:20 AM 55.8°F13.2°C 48.3°F9.1°C 76% 0.8 mph W1.3 kmh W 3.1 mph5.0 kmh 30.06 in1017.9 mb 0.00 in0.0 mm 0.00 in0.0 mm 0.00 in0.0 mm
08:25 AM 56.3°F13.5°C 48.8°F9.3°C 76% 0.7 mph WSW1.1 kmh WSW 3.1 mph5.0 kmh 30.06 in1017.9 mb 0.00 in0.0 mm 0.00 in0.0 mm 0.00 in0.0 mm
08:30 AM 56.5°F13.6°C 49.0°F9.4°C 76% 0.8 mph SW1.3 kmh SW 3.1 mph5.0 kmh 30.05 in1017.6 mb 0.00 in0.0 mm 0.00 in0.0 mm 0.00 in0.0 mm
08:35 AM 57.0°F13.9°C 49.5°F9.7°C 76% 0.8 mph WSW1.3 kmh WSW 3.1 mph5.0 kmh 30.05 in1017.6 mb 0.00 in0.0 mm 0.00 in0.0 mm 0.00 in0.0 mm
08:40 AM 57.2°F14.0°C 49.0°F9.4°C 74% 0.7 mph W1.1 kmh W 3.1 mph5.0 kmh 30.05 in1017.6 mb 0.00 in0.0 mm 0.00 in0.0 mm 0.00 in0.0 mm
08:45 AM 58.1°F14.5°C 49.9°F9.9°C 74% 1.5 mph NW2.4 kmh NW 6.0 mph9.7 kmh 30.06 in1017.9 mb 0.00 in0.0 mm 0.00 in0.0 mm 0.00 in0.0 mm
08:50 AM 57.7°F14.3°C 48.4°F9.1°C 71% 2.7 mph N4.3 kmh N 6.0 mph9.7 kmh 30.06 in1017.9 mb 0.00 in0.0 mm 0.00 in0.0 mm 0.00 in0.0 mm
08:55 AM 57.2°F14.0°C 47.9°F8.8°C 71% 3.3 mph N5.3 kmh N 6.0 mph9.7 kmh 30.06 in1017.9 mb 0.00 in0.0 mm 0.00 in0.0 mm 0.00 in0.0 mm
09:00 AM 57.7°F14.3°C 48.4°F9.1°C 71% 3.4 mph NNW5.5 kmh NNW 6.0 mph9.7 kmh 30.06 in1017.9 mb 0.00 in0.0 mm 0.00 in0.0 mm 0.00 in0.0 mm
09:05 AM 58.3°F14.6°C 48.9°F9.4°C 71% 3.5 mph NW5.6 kmh NW 6.9 mph11.1 kmh 30.05 in1017.6 mb 0.00 in0.0 mm 0.00 in0.0 mm 0.00 in0.0 mm
09:10 AM 59.0°F15.0°C 49.2°F9.6°C 70% 2.8 mph WNW4.5 kmh WNW 6.9 mph11.1 kmh 30.05 in1017.6 mb 0.00 in0.0 mm 0.00 in0.0 mm 0.00 in0.0 mm
09:15 AM 60.8°F16.0°C 51.3°F10.7°C 71% 1.3 mph NW2.1 kmh NW 4.5 mph7.2 kmh 30.06 in1017.9 mb 0.00 in0.0 mm 0.00 in0.0 mm 0.00 in0.0 mm
09:20 AM 62.4°F16.9°C 51.3°F10.7°C 67% 1.2 mph WNW1.9 kmh WNW 4.5 mph7.2 kmh 30.05 in1017.6 mb 0.00 in0.0 mm 0.00 in0.0 mm 0.00 in0.0 mm
09:25 AM 62.6°F17.0°C 50.2°F10.1°C 64% 1.7 mph WNW2.7 kmh WNW 4.5 mph7.2 kmh 30.05 in1017.6 mb 0.00 in0.0 mm 0.00 in0.0 mm 0.00 in0.0 mm
09:30 AM 62.4°F16.9°C 50.1°F10.1°C 64% 2.7 mph NW4.3 kmh NW 6.0 mph9.7 kmh 30.05 in1017.6 mb 0.00 in0.0 mm 0.00 in0.0 mm 0.00 in0.0 mm
09:35 AM 61.9°F16.6°C 49.1°F9.5°C 63% 3.3 mph NW5.3 kmh NW 6.0 mph9.7 kmh 30.05 in1017.6 mb 0.00 in0.0 mm 0.00 in0.0 mm 0.00 in0.0 mm
09:40 AM 61.3°F16.3°C 48.6°F9.2°C 63% 3.1 mph NW5.0 kmh NW 6.0 mph9.7 kmh 30.05 in1017.6 mb 0.00 in0.0 mm 0.00 in0.0 mm 0.00 in0.0 mm
09:45 AM 62.2°F16.8°C 49.5°F9.7°C 63% 3.0 mph WNW4.8 kmh WNW 6.0 mph9.7 kmh 30.05 in1017.6 mb 0.00 in0.0 mm 0.00 in0.0 mm 0.00 in0.0 mm
09:50 AM 62.6°F17.0°C 49.4°F9.7°C 62% 3.2 mph W5.1 kmh W 6.9 mph11.1 kmh 30.05 in1017.6 mb 0.00 in0.0 mm 0.00 in0.0 mm 0.00 in0.0 mm
09:55 AM 62.6°F17.0°C 48.5°F9.2°C 60% 3.7 mph W6.0 kmh W 6.9 mph11.1 kmh 30.05 in1017.6 mb 0.00 in0.0 mm 0.00 in0.0 mm 0.00 in0.0 mm
10:00 AM 62.8°F17.1°C 48.7°F9.3°C 60% 3.6 mph WSW5.8 kmh WSW 8.3 mph13.4 kmh 30.05 in1017.6 mb 0.00 in0.0 mm 0.00 in0.0 mm 0.00 in0.0 mm
10:05 AM 62.6°F17.0°C 46.7°F8.2°C 56% 4.5 mph W7.2 kmh W 8.3 mph13.4 kmh 30.05 in1017.6 mb 0.00 in0.0 mm 0.00 in0.0 mm 0.00 in0.0 mm
10:10 AM 62.4°F16.9°C 47.0°F8.3°C 57% 5.2 mph NW8.4 kmh NW 8.3 mph13.4 kmh 30.05 in1017.6 mb 0.00 in0.0 mm 0.00 in0.0 mm 0.00 in0.0 mm
10:15 AM 62.4°F16.9°C 47.4°F8.6°C 58% 3.9 mph NW6.3 kmh NW 7.6 mph12.2 kmh 30.05 in1017.6 mb 0.00 in0.0 mm 0.00 in0.0 mm 0.00 in0.0 mm
10:20 AM 62.4°F16.9°C 47.0°F8.3°C 57% 4.0 mph NW6.4 kmh NW 7.6 mph12.2 kmh 30.04 in1017.3 mb 0.00 in0.0 mm 0.00 in0.0 mm 0.00 in0.0 mm
10:25 AM 63.0°F17.2°C 47.0°F8.3°C 56% 4.1 mph NNW6.6 kmh NNW 7.6 mph12.2 kmh 30.04 in1017.3 mb 0.00 in0.0 mm 0.00 in0.0 mm 0.00 in0.0 mm
10:30 AM 63.0°F17.2°C 46.5°F8.1°C 55% 3.8 mph N6.1 kmh N 7.6 mph12.2 kmh 30.04 in1017.3 mb 0.00 in0.0 mm 0.00 in0.0 mm 0.00 in0.0 mm
10:35 AM 63.3°F17.4°C 46.4°F8.0°C 54% 4.3 mph NW6.9 kmh NW 9.2 mph14.8 kmh 30.04 in1017.3 mb 0.00 in0.0 mm 0.00 in0.0 mm 0.00 in0.0 mm
10:40 AM 63.5°F17.5°C 46.1°F7.8°C 53% 4.6 mph NW7.4 kmh NW 9.2 mph14.8 kmh 30.04 in1017.3 mb 0.00 in0.0 mm 0.00 in0.0 mm 0.00 in0.0 mm
10:45 AM 64.2°F17.9°C 46.2°F7.9°C 52% 3.4 mph NW5.5 kmh NW 8.3 mph13.4 kmh 30.04 in1017.3 mb 0.00 in0.0 mm 0.00 in0.0 mm 0.00 in0.0 mm
10:50 AM 66.4°F19.1°C 48.7°F9.3°C 53% 1.9 mph WSW3.1 kmh WSW 5.4 mph8.7 kmh 30.04 in1017.3 mb 0.00 in0.0 mm 0.00 in0.0 mm 0.00 in0.0 mm
10:55 AM 65.5°F18.6°C 46.9°F8.3°C 51% 2.3 mph WNW3.7 kmh WNW 6.0 mph9.7 kmh 30.04 in1017.3 mb 0.00 in0.0 mm 0.00 in0.0 mm 0.00 in0.0 mm
11:00 AM 65.3°F18.5°C 46.7°F8.2°C 51% 4.3 mph NW6.9 kmh NW 8.3 mph13.4 kmh 30.04 in1017.3 mb 0.00 in0.0 mm 0.00 in0.0 mm 0.00 in0.0 mm
11:05 AM 64.6°F18.1°C 46.0°F7.8°C 51% 4.3 mph NW6.9 kmh NW 8.3 mph13.4 kmh 30.04 in1017.3 mb 0.00 in0.0 mm 0.00 in0.0 mm 0.00 in0.0 mm
11:10 AM 64.8°F18.2°C 46.7°F8.2°C 52% 2.7 mph WSW4.3 kmh WSW 5.4 mph8.7 kmh 30.04 in1017.3 mb 0.00 in0.0 mm 0.00 in0.0 mm 0.00 in0.0 mm
11:15 AM 65.5°F18.6°C 47.4°F8.6°C 52% 2.1 mph WSW3.4 kmh WSW 6.0 mph9.7 kmh 30.03 in1016.9 mb 0.00 in0.0 mm 0.00 in0.0 mm 0.00 in0.0 mm
11:20 AM 64.9°F18.3°C 45.8°F7.7°C 50% 2.6 mph WNW4.2 kmh WNW 7.6 mph12.2 kmh 30.03 in1016.9 mb 0.00 in0.0 mm 0.00 in0.0 mm 0.00 in0.0 mm
11:25 AM 63.9°F17.7°C 45.9°F7.7°C 52% 3.1 mph WNW5.0 kmh WNW 7.6 mph12.2 kmh 30.03 in1016.9 mb 0.00 in0.0 mm 0.00 in0.0 mm 0.00 in0.0 mm
11:30 AM 63.9°F17.7°C 46.4°F8.0°C 53% 3.0 mph NW4.8 kmh NW 8.3 mph13.4 kmh 30.03 in1016.9 mb 0.00 in0.0 mm 0.00 in0.0 mm 0.00 in0.0 mm
11:35 AM 64.8°F18.2°C 46.7°F8.2°C 52% 3.0 mph NW4.8 kmh NW 8.3 mph13.4 kmh 30.03 in1016.9 mb 0.00 in0.0 mm 0.00 in0.0 mm 0.00 in0.0 mm
11:40 AM 65.7°F18.7°C 47.0°F8.3°C 51% 3.3 mph WNW5.3 kmh WNW 7.6 mph12.2 kmh 30.03 in1016.9 mb 0.00 in0.0 mm 0.00 in0.0 mm 0.00 in0.0 mm
11:45 AM 66.6°F19.2°C 46.8°F8.2°C 49% 2.7 mph NW4.3 kmh NW 7.6 mph12.2 kmh 30.03 in1016.9 mb 0.00 in0.0 mm 0.00 in0.0 mm 0.00 in0.0 mm
11:50 AM 68.0°F20.0°C 47.0°F8.3°C 47% 1.2 mph WNW1.9 kmh WNW 6.0 mph9.7 kmh 30.03 in1016.9 mb 0.00 in0.0 mm 0.00 in0.0 mm 0.00 in0.0 mm
11:55 AM 68.7°F20.4°C 46.5°F8.1°C 45% 1.8 mph W2.9 kmh W 6.9 mph11.1 kmh 30.02 in1016.6 mb 0.00 in0.0 mm 0.00 in0.0 mm 0.00 in0.0 mm
12:00 PM 68.7°F20.4°C 47.7°F8.7°C 47% 2.1 mph WSW3.4 kmh WSW 6.9 mph11.1 kmh 30.02 in1016.6 mb 0.00 in0.0 mm 0.00 in0.0 mm 0.00 in0.0 mm
12:05 PM 69.1°F20.6°C 46.8°F8.2°C 45% 2.0 mph WSW3.2 kmh WSW 6.0 mph9.7 kmh 30.02 in1016.6 mb 0.00 in0.0 mm 0.00 in0.0 mm 0.00 in0.0 mm
12:10 PM 67.1°F19.5°C 45.0°F7.2°C 45% 3.3 mph WSW5.3 kmh WSW 6.9 mph11.1 kmh 30.02 in1016.6 mb 0.00 in0.0 mm 0.00 in0.0 mm 0.00 in0.0 mm
12:15 PM 66.0°F18.9°C 45.2°F7.3°C 47% 2.8 mph WSW4.5 kmh WSW 6.9 mph11.1 kmh 30.02 in1016.6 mb 0.00 in0.0 mm 0.00 in0.0 mm 0.00 in0.0 mm
12:20 PM 66.0°F18.9°C 45.2°F7.3°C 47% 1.6 mph WNW2.6 kmh WNW 5.4 mph8.7 kmh 30.02 in1016.6 mb 0.00 in0.0 mm 0.00 in0.0 mm 0.00 in0.0 mm
12:25 PM 67.1°F19.5°C 46.7°F8.2°C 48% 1.3 mph NW2.1 kmh NW 5.4 mph8.7 kmh 30.02 in1016.6 mb 0.00 in0.0 mm 0.00 in0.0 mm 0.00 in0.0 mm
12:30 PM 66.9°F19.4°C 46.0°F7.8°C 47% 1.5 mph NW2.4 kmh NW 5.4 mph8.7 kmh 30.02 in1016.6 mb 0.00 in0.0 mm 0.00 in0.0 mm 0.00 in0.0 mm
12:35 PM 66.9°F19.4°C 45.5°F7.5°C 46% 2.3 mph NW3.7 kmh NW 6.9 mph11.1 kmh 30.02 in1016.6 mb 0.00 in0.0 mm 0.00 in0.0 mm 0.00 in0.0 mm
12:40 PM 65.8°F18.8°C 45.0°F7.2°C 47% 2.7 mph WNW4.3 kmh WNW 6.9 mph11.1 kmh 30.02 in1016.6 mb 0.00 in0.0 mm 0.00 in0.0 mm 0.00 in0.0 mm
12:45 PM 66.0°F18.9°C 45.8°F7.7°C 48% 1.8 mph W2.9 kmh W 5.4 mph8.7 kmh 30.02 in1016.6 mb 0.00 in0.0 mm 0.00 in0.0 mm 0.00 in0.0 mm
12:50 PM 66.2°F19.0°C 45.4°F7.4°C 47% 1.8 mph W2.9 kmh W 6.0 mph9.7 kmh 30.02 in1016.6 mb 0.00 in0.0 mm 0.00 in0.0 mm 0.00 in0.0 mm
12:55 PM 66.7°F19.3°C 45.9°F7.7°C 47% 2.7 mph W4.3 kmh W 6.0 mph9.7 kmh 30.01 in1016.3 mb 0.00 in0.0 mm 0.00 in0.0 mm 0.00 in0.0 mm
01:00 PM 66.9°F19.4°C 45.5°F7.5°C 46% 2.9 mph WNW4.7 kmh WNW 6.0 mph9.7 kmh 30.01 in1016.3 mb 0.00 in0.0 mm 0.00 in0.0 mm 0.00 in0.0 mm
01:05 PM 67.6°F19.8°C 46.1°F7.8°C 46% 2.4 mph NW3.9 kmh NW 5.4 mph8.7 kmh 30.01 in1016.3 mb 0.00 in0.0 mm 0.00 in0.0 mm 0.00 in0.0 mm
01:10 PM 67.6°F19.8°C 46.1°F7.8°C 46% 2.3 mph W3.7 kmh W 5.4 mph8.7 kmh 30.01 in1016.3 mb 0.00 in0.0 mm 0.00 in0.0 mm 0.00 in0.0 mm
01:15 PM 68.5°F20.3°C 46.3°F7.9°C 45% 1.8 mph W2.9 kmh W 5.4 mph8.7 kmh 30.00 in1015.9 mb 0.00 in0.0 mm 0.00 in0.0 mm 0.00 in0.0 mm
01:20 PM 68.7°F20.4°C 45.9°F7.7°C 44% 2.1 mph NW3.4 kmh NW 6.0 mph9.7 kmh 30.00 in1015.9 mb 0.00 in0.0 mm 0.00 in0.0 mm 0.00 in0.0 mm
01:25 PM 69.6°F20.9°C 47.3°F8.5°C 45% 2.7 mph NW4.3 kmh NW 6.0 mph9.7 kmh 30.00 in1015.9 mb 0.00 in0.0 mm 0.00 in0.0 mm 0.00 in0.0 mm
01:30 PM 70.9°F21.6°C 47.3°F8.5°C 43% 2.3 mph WNW3.7 kmh WNW 6.0 mph9.7 kmh 30.00 in1015.9 mb 0.00 in0.0 mm 0.00 in0.0 mm 0.00 in0.0 mm
01:35 PM 70.7°F21.5°C 46.5°F8.1°C 42% 2.5 mph NW4.0 kmh NW 6.0 mph9.7 kmh 30.00 in1015.9 mb 0.00 in0.0 mm 0.00 in0.0 mm 0.00 in0.0 mm
01:40 PM 68.5°F20.3°C 45.8°F7.7°C 44% 3.0 mph WNW4.8 kmh WNW 6.9 mph11.1 kmh 30.00 in1015.9 mb 0.00 in0.0 mm 0.00 in0.0 mm 0.00 in0.0 mm
01:45 PM 67.3°F19.6°C 45.8°F7.7°C 46% 3.1 mph WNW5.0 kmh WNW 6.9 mph11.1 kmh 30.00 in1015.9 mb 0.00 in0.0 mm 0.00 in0.0 mm 0.00 in0.0 mm
01:50 PM 67.1°F19.5°C 45.6°F7.6°C 46% 2.7 mph WNW4.3 kmh WNW 6.9 mph11.1 kmh 30.00 in1015.9 mb 0.00 in0.0 mm 0.00 in0.0 mm 0.00 in0.0 mm
01:55 PM 66.4°F19.1°C 44.4°F6.9°C 45% 3.9 mph WSW6.3 kmh WSW 13.0 mph20.9 kmh 30.00 in1015.9 mb 0.00 in0.0 mm 0.00 in0.0 mm 0.00 in0.0 mm
02:00 PM 66.0°F18.9°C 45.2°F7.3°C 47% 4.1 mph WSW6.6 kmh WSW 13.0 mph20.9 kmh 29.99 in1015.6 mb 0.00 in0.0 mm 0.00 in0.0 mm 0.00 in0.0 mm
02:05 PM 66.6°F19.2°C 45.1°F7.3°C 46% 3.2 mph NW5.1 kmh NW 7.6 mph12.2 kmh 29.99 in1015.6 mb 0.00 in0.0 mm 0.00 in0.0 mm 0.00 in0.0 mm
02:10 PM 66.7°F19.3°C 46.4°F8.0°C 48% 3.7 mph NW6.0 kmh NW 7.6 mph12.2 kmh 29.99 in1015.6 mb 0.00 in0.0 mm 0.00 in0.0 mm 0.00 in0.0 mm
02:15 PM 66.6°F19.2°C 45.1°F7.3°C 46% 3.7 mph NW6.0 kmh NW 6.9 mph11.1 kmh 29.98 in1015.2 mb 0.00 in0.0 mm 0.00 in0.0 mm 0.00 in0.0 mm
02:20 PM 66.2°F19.0°C 44.8°F7.1°C 46% 4.4 mph NW7.1 kmh NW 9.2 mph14.8 kmh 29.98 in1015.2 mb 0.00 in0.0 mm 0.00 in0.0 mm 0.00 in0.0 mm
02:25 PM 65.7°F18.7°C 44.9°F7.2°C 47% 5.3 mph NW8.5 kmh NW 9.8 mph15.8 kmh 29.98 in1015.2 mb 0.00 in0.0 mm 0.00 in0.0 mm 0.00 in0.0 mm
02:30 PM 65.5°F18.6°C 44.1°F6.7°C 46% 5.6 mph WNW9.0 kmh WNW 9.8 mph15.8 kmh 29.98 in1015.2 mb 0.00 in0.0 mm 0.00 in0.0 mm 0.00 in0.0 mm
02:35 PM 65.7°F18.7°C 44.9°F7.2°C 47% 4.9 mph WNW7.9 kmh WNW 8.3 mph13.4 kmh 29.98 in1015.2 mb 0.00 in0.0 mm 0.00 in0.0 mm 0.00 in0.0 mm
02:40 PM 65.3°F18.5°C 45.1°F7.3°C 48% 3.8 mph NW6.1 kmh NW 8.3 mph13.4 kmh 29.98 in1015.2 mb 0.00 in0.0 mm 0.00 in0.0 mm 0.00 in0.0 mm
02:45 PM 65.8°F18.8°C 45.6°F7.6°C 48% 4.0 mph WNW6.4 kmh WNW 9.2 mph14.8 kmh 29.98 in1015.2 mb 0.00 in0.0 mm 0.00 in0.0 mm 0.00 in0.0 mm
02:50 PM 66.4°F19.1°C 45.0°F7.2°C 46% 4.5 mph NW7.2 kmh NW 9.2 mph14.8 kmh 29.98 in1015.2 mb 0.00 in0.0 mm 0.00 in0.0 mm 0.00 in0.0 mm
02:55 PM 66.6°F19.2°C 45.1°F7.3°C 46% 3.9 mph NW6.3 kmh NW 8.3 mph13.4 kmh 29.98 in1015.2 mb 0.00 in0.0 mm 0.00 in0.0 mm 0.00 in0.0 mm
03:00 PM 66.0°F18.9°C 44.6°F7.0°C 46% 4.1 mph NW6.6 kmh NW 9.2 mph14.8 kmh 29.97 in1014.9 mb 0.00 in0.0 mm 0.00 in0.0 mm 0.00 in0.0 mm
03:05 PM 65.7°F18.7°C 44.3°F6.8°C 46% 5.0 mph W8.0 kmh W 9.2 mph14.8 kmh 29.98 in1015.2 mb 0.00 in0.0 mm 0.00 in0.0 mm 0.00 in0.0 mm
03:10 PM 66.2°F19.0°C 45.4°F7.4°C 47% 5.0 mph NW8.0 kmh NW 8.3 mph13.4 kmh 29.97 in1014.9 mb 0.00 in0.0 mm 0.00 in0.0 mm 0.00 in0.0 mm
03:15 PM 66.9°F19.4°C 45.5°F7.5°C 46% 4.0 mph N6.4 kmh N 8.3 mph13.4 kmh 29.98 in1015.2 mb 0.00 in0.0 mm 0.00 in0.0 mm 0.00 in0.0 mm
03:20 PM 66.7°F19.3°C 45.3°F7.4°C 46% 3.6 mph WNW5.8 kmh WNW 8.3 mph13.4 kmh 29.97 in1014.9 mb 0.00 in0.0 mm 0.00 in0.0 mm 0.00 in0.0 mm
03:25 PM 67.6°F19.8°C 45.5°F7.5°C 45% 5.0 mph NW8.0 kmh NW 10.7 mph17.2 kmh 29.97 in1014.9 mb 0.00 in0.0 mm 0.00 in0.0 mm 0.00 in0.0 mm
03:30 PM 67.3°F19.6°C 44.6°F7.0°C 44% 5.7 mph NW9.2 kmh NW 10.7 mph17.2 kmh 29.97 in1014.9 mb 0.00 in0.0 mm 0.00 in0.0 mm 0.00 in0.0 mm
03:35 PM 68.4°F20.2°C 46.2°F7.9°C 45% 3.7 mph W6.0 kmh W 9.2 mph14.8 kmh 29.97 in1014.9 mb 0.00 in0.0 mm 0.00 in0.0 mm 0.00 in0.0 mm
03:40 PM 68.5°F20.3°C 45.8°F7.7°C 44% 3.1 mph NW5.0 kmh NW 9.2 mph14.8 kmh 29.97 in1014.9 mb 0.00 in0.0 mm 0.00 in0.0 mm 0.00 in0.0 mm
03:45 PM 69.3°F20.7°C 46.4°F8.0°C 44% 4.0 mph NW6.4 kmh NW 9.2 mph14.8 kmh 29.97 in1014.9 mb 0.00 in0.0 mm 0.00 in0.0 mm 0.00 in0.0 mm
03:50 PM 67.8°F19.9°C 44.5°F6.9°C 43% 4.2 mph NNW6.8 kmh NNW 9.8 mph15.8 kmh 29.96 in1014.6 mb 0.00 in0.0 mm 0.00 in0.0 mm 0.00 in0.0 mm
03:55 PM 67.3°F19.6°C 45.2°F7.3°C 45% 4.0 mph NW6.4 kmh NW 9.8 mph15.8 kmh 29.96 in1014.6 mb 0.00 in0.0 mm 0.00 in0.0 mm 0.00 in0.0 mm
04:00 PM 66.9°F19.4°C 44.9°F7.2°C 45% 3.1 mph NW5.0 kmh NW 7.6 mph12.2 kmh 29.97 in1014.9 mb 0.00 in0.0 mm 0.00 in0.0 mm 0.00 in0.0 mm
04:05 PM 66.0°F18.9°C 44.6°F7.0°C 46% 3.2 mph NW5.1 kmh NW 7.6 mph12.2 kmh 29.96 in1014.6 mb 0.00 in0.0 mm 0.00 in0.0 mm 0.00 in0.0 mm
04:10 PM 65.5°F18.6°C 44.7°F7.1°C 47% 3.1 mph W5.0 kmh W 7.6 mph12.2 kmh 29.97 in1014.9 mb 0.00 in0.0 mm 0.00 in0.0 mm 0.00 in0.0 mm
04:15 PM 65.1°F18.4°C 44.4°F6.9°C 47% 2.5 mph NW4.0 kmh NW 7.6 mph12.2 kmh 29.96 in1014.6 mb 0.00 in0.0 mm 0.00 in0.0 mm 0.00 in0.0 mm
04:20 PM 64.8°F18.2°C 44.1°F6.7°C 47% 3.1 mph W5.0 kmh W 6.0 mph9.7 kmh 29.96 in1014.6 mb 0.00 in0.0 mm 0.00 in0.0 mm 0.00 in0.0 mm
04:25 PM 64.2°F17.9°C 44.1°F6.7°C 48% 4.2 mph WSW6.8 kmh WSW 6.0 mph9.7 kmh 29.96 in1014.6 mb 0.00 in0.0 mm 0.00 in0.0 mm 0.00 in0.0 mm
04:30 PM 63.9°F17.7°C 44.3°F6.8°C 49% 4.3 mph WNW6.9 kmh WNW 6.9 mph11.1 kmh 29.96 in1014.6 mb 0.00 in0.0 mm 0.00 in0.0 mm 0.00 in0.0 mm
04:35 PM 63.5°F17.5°C 44.5°F6.9°C 50% 4.0 mph N6.4 kmh N 6.9 mph11.1 kmh 29.96 in1014.6 mb 0.00 in0.0 mm 0.00 in0.0 mm 0.00 in0.0 mm
04:40 PM 63.0°F17.2°C 45.1°F7.3°C 52% 4.1 mph NNW6.6 kmh NNW 8.3 mph13.4 kmh 29.96 in1014.6 mb 0.00 in0.0 mm 0.00 in0.0 mm 0.00 in0.0 mm
04:45 PM 62.6°F17.0°C 45.2°F7.3°C 53% 4.2 mph WNW6.8 kmh WNW 8.3 mph13.4 kmh 29.96 in1014.6 mb 0.00 in0.0 mm 0.00 in0.0 mm 0.00 in0.0 mm
04:50 PM 62.2°F16.8°C 45.4°F7.4°C 54% 4.4 mph WNW7.1 kmh WNW 8.3 mph13.4 kmh 29.96 in1014.6 mb 0.00 in0.0 mm 0.00 in0.0 mm 0.00 in0.0 mm
04:55 PM 62.1°F16.7°C 45.7°F7.6°C 55% 4.8 mph WNW7.7 kmh WNW 8.3 mph13.4 kmh 29.96 in1014.6 mb 0.00 in0.0 mm 0.00 in0.0 mm 0.00 in0.0 mm
05:00 PM 61.9°F16.6°C 45.5°F7.5°C 55% 4.0 mph WNW6.4 kmh WNW 7.6 mph12.2 kmh 29.96 in1014.6 mb 0.00 in0.0 mm 0.00 in0.0 mm 0.00 in0.0 mm
05:05 PM 61.9°F16.6°C 46.0°F7.8°C 56% 3.4 mph WNW5.5 kmh WNW 6.0 mph9.7 kmh 29.96 in1014.6 mb 0.00 in0.0 mm 0.00 in0.0 mm 0.00 in0.0 mm
05:10 PM 61.7°F16.5°C 46.3°F7.9°C 57% 3.5 mph NW5.6 kmh NW 7.6 mph12.2 kmh 29.96 in1014.6 mb 0.00 in0.0 mm 0.00 in0.0 mm 0.00 in0.0 mm
05:15 PM 61.7°F16.5°C 45.8°F7.7°C 56% 3.4 mph NW5.5 kmh NW 7.6 mph12.2 kmh 29.96 in1014.6 mb 0.00 in0.0 mm 0.00 in0.0 mm 0.00 in0.0 mm
05:20 PM 61.5°F16.4°C 46.1°F7.8°C 57% 2.7 mph W4.3 kmh W 5.4 mph8.7 kmh 29.96 in1014.6 mb 0.00 in0.0 mm 0.00 in0.0 mm 0.00 in0.0 mm
05:25 PM 61.5°F16.4°C 45.7°F7.6°C 56% 2.5 mph NW4.0 kmh NW 7.6 mph12.2 kmh 29.96 in1014.6 mb 0.00 in0.0 mm 0.00 in0.0 mm 0.00 in0.0 mm
05:30 PM 61.3°F16.3°C 46.0°F7.8°C 57% 2.3 mph WNW3.7 kmh WNW 7.6 mph12.2 kmh 29.96 in1014.6 mb 0.00 in0.0 mm 0.00 in0.0 mm 0.00 in0.0 mm
05:35 PM 61.2°F16.2°C 45.8°F7.7°C 57% 1.7 mph WNW2.7 kmh WNW 7.6 mph12.2 kmh 29.96 in1014.6 mb 0.00 in0.0 mm 0.00 in0.0 mm 0.00 in0.0 mm
05:40 PM 61.0°F16.1°C 46.1°F7.8°C 58% 1.5 mph NW2.4 kmh NW 5.4 mph8.7 kmh 29.95 in1014.2 mb 0.00 in0.0 mm 0.00 in0.0 mm 0.00 in0.0 mm
05:45 PM 60.8°F16.0°C 45.9°F7.7°C 58% 1.3 mph NW2.1 kmh NW 5.4 mph8.7 kmh 29.96 in1014.6 mb 0.00 in0.0 mm 0.00 in0.0 mm 0.00 in0.0 mm
05:50 PM 60.6°F15.9°C 46.7°F8.2°C 60% 1.1 mph NW1.8 kmh NW 4.5 mph7.2 kmh 29.96 in1014.6 mb 0.00 in0.0 mm 0.00 in0.0 mm 0.00 in0.0 mm
05:55 PM 60.4°F15.8°C 46.5°F8.1°C 60% 1.0 mph NW1.6 kmh NW 4.5 mph7.2 kmh 29.96 in1014.6 mb 0.00 in0.0 mm 0.00 in0.0 mm 0.00 in0.0 mm
06:00 PM 60.3°F15.7°C 46.8°F8.2°C 61% 1.1 mph NW1.8 kmh NW 5.4 mph8.7 kmh 29.96 in1014.6 mb 0.00 in0.0 mm 0.00 in0.0 mm 0.00 in0.0 mm
06:05 PM 60.1°F15.6°C 47.0°F8.3°C 62% 1.2 mph NW1.9 kmh NW 5.4 mph8.7 kmh 29.96 in1014.6 mb 0.00 in0.0 mm 0.00 in0.0 mm 0.00 in0.0 mm
06:10 PM 60.1°F15.6°C 47.0°F8.3°C 62% 1.3 mph NW2.1 kmh NW 4.5 mph7.2 kmh 29.96 in1014.6 mb 0.00 in0.0 mm 0.00 in0.0 mm 0.00 in0.0 mm
06:25 PM 59.7°F15.4°C 47.1°F8.4°C 63% 0.6 mph WNW1.0 kmh WNW 3.8 mph6.1 kmh 29.96 in1014.6 mb 0.00 in0.0 mm 0.00 in0.0 mm 0.00 in0.0 mm
06:30 PM 59.5°F15.3°C 46.9°F8.3°C 63% 0.5 mph NW0.8 kmh NW 3.1 mph5.0 kmh 29.96 in1014.6 mb 0.00 in0.0 mm 0.00 in0.0 mm 0.00 in0.0 mm
06:35 PM 59.5°F15.3°C 46.9°F8.3°C 63% 0.4 mph NW0.6 kmh NW 3.1 mph5.0 kmh 29.96 in1014.6 mb 0.00 in0.0 mm 0.00 in0.0 mm 0.00 in0.0 mm
06:40 PM 59.4°F15.2°C 46.8°F8.2°C 63% 0.3 mph NW0.5 kmh NW 3.1 mph5.0 kmh 29.96 in1014.6 mb 0.00 in0.0 mm 0.00 in0.0 mm 0.00 in0.0 mm
06:45 PM 59.2°F15.1°C 46.6°F8.1°C 63% 0.3 mph NW0.5 kmh NW 2.2 mph3.5 kmh 29.96 in1014.6 mb 0.00 in0.0 mm 0.00 in0.0 mm 0.00 in0.0 mm
06:50 PM 59.2°F15.1°C 46.6°F8.1°C 63% 0.3 mph NW0.5 kmh NW 2.2 mph3.5 kmh 29.96 in1014.6 mb 0.00 in0.0 mm 0.00 in0.0 mm 0.00 in0.0 mm
06:55 PM 59.0°F15.0°C 46.4°F8.0°C 63% 0.1 mph NW0.2 kmh NW 2.2 mph3.5 kmh 29.96 in1014.6 mb 0.00 in0.0 mm 0.00 in0.0 mm 0.00 in0.0 mm
07:00 PM 59.0°F15.0°C 46.8°F8.2°C 64% 0.3 mph NW0.5 kmh NW 2.2 mph3.5 kmh 29.96 in1014.6 mb 0.00 in0.0 mm 0.00 in0.0 mm 0.00 in0.0 mm
07:05 PM 58.8°F14.9°C 47.1°F8.4°C 65% 1.2 mph NW1.9 kmh NW 3.8 mph6.1 kmh 29.97 in1014.9 mb 0.00 in0.0 mm 0.00 in0.0 mm 0.00 in0.0 mm
07:10 PM 58.6°F14.8°C 47.3°F8.5°C 66% 3.0 mph NW4.8 kmh NW 12.1 mph19.5 kmh 29.96 in1014.6 mb 0.00 in0.0 mm 0.00 in0.0 mm 0.00 in0.0 mm
07:15 PM 57.9°F14.4°C 47.4°F8.6°C 68% 4.4 mph NW7.1 kmh NW 13.0 mph20.9 kmh 29.97 in1014.9 mb 0.00 in0.0 mm 0.00 in0.0 mm 0.00 in0.0 mm
07:20 PM 57.7°F14.3°C 47.2°F8.4°C 68% 3.9 mph NW6.3 kmh NW 13.0 mph20.9 kmh 29.97 in1014.9 mb 0.00 in0.0 mm 0.00 in0.0 mm 0.00 in0.0 mm
07:25 PM 57.9°F14.4°C 47.0°F8.3°C 67% 3.3 mph NW5.3 kmh NW 8.3 mph13.4 kmh 29.97 in1014.9 mb 0.00 in0.0 mm 0.00 in0.0 mm 0.00 in0.0 mm
07:30 PM 57.9°F14.4°C 47.0°F8.3°C 67% 3.5 mph NW5.6 kmh NW 8.3 mph13.4 kmh 29.97 in1014.9 mb 0.00 in0.0 mm 0.00 in0.0 mm 0.00 in0.0 mm
07:35 PM 57.9°F14.4°C 47.0°F8.3°C 67% 3.5 mph W5.6 kmh W 6.9 mph11.1 kmh 29.97 in1014.9 mb 0.00 in0.0 mm 0.00 in0.0 mm 0.00 in0.0 mm
07:40 PM 57.6°F14.2°C 47.1°F8.4°C 68% 4.1 mph WNW6.6 kmh WNW 9.2 mph14.8 kmh 29.97 in1014.9 mb 0.00 in0.0 mm 0.00 in0.0 mm 0.00 in0.0 mm
07:45 PM 57.2°F14.0°C 46.7°F8.2°C 68% 4.9 mph WNW7.9 kmh WNW 9.2 mph14.8 kmh 29.98 in1015.2 mb 0.00 in0.0 mm 0.00 in0.0 mm 0.00 in0.0 mm
07:50 PM 56.8°F13.8°C 47.2°F8.4°C 70% 6.0 mph WNW9.7 kmh WNW 11.4 mph18.3 kmh 29.98 in1015.2 mb 0.00 in0.0 mm 0.00 in0.0 mm 0.00 in0.0 mm
07:55 PM 56.3°F13.5°C 47.4°F8.6°C 72% 7.4 mph NW11.9 kmh NW 12.1 mph19.5 kmh 29.98 in1015.2 mb 0.00 in0.0 mm 0.00 in0.0 mm 0.00 in0.0 mm
08:00 PM 55.8°F13.2°C 47.6°F8.7°C 74% 7.8 mph NW12.6 kmh NW 12.1 mph19.5 kmh 29.98 in1015.2 mb 0.00 in0.0 mm 0.00 in0.0 mm 0.00 in0.0 mm
08:05 PM 55.6°F13.1°C 47.8°F8.8°C 75% 7.9 mph NNW12.7 kmh NNW 13.0 mph20.9 kmh 29.98 in1015.2 mb 0.00 in0.0 mm 0.00 in0.0 mm 0.00 in0.0 mm
08:10 PM 55.2°F12.9°C 47.8°F8.8°C 76% 8.2 mph NW13.2 kmh NW 13.0 mph20.9 kmh 29.98 in1015.2 mb 0.00 in0.0 mm 0.00 in0.0 mm 0.00 in0.0 mm
08:15 PM 55.0°F12.8°C 48.0°F8.9°C 77% 7.5 mph WNW12.1 kmh WNW 13.0 mph20.9 kmh 29.98 in1015.2 mb 0.00 in0.0 mm 0.00 in0.0 mm 0.00 in0.0 mm
08:20 PM 54.7°F12.6°C 48.0°F8.9°C 78% 7.1 mph WNW11.4 kmh WNW 11.4 mph18.3 kmh 29.98 in1015.2 mb 0.00 in0.0 mm 0.00 in0.0 mm 0.00 in0.0 mm
08:25 PM 54.5°F12.5°C 48.5°F9.2°C 80% 7.1 mph W11.4 kmh W 11.4 mph18.3 kmh 29.98 in1015.2 mb 0.00 in0.0 mm 0.00 in0.0 mm 0.00 in0.0 mm
08:30 PM 54.3°F12.4°C 48.6°F9.2°C 81% 6.6 mph WNW10.6 kmh WNW 10.7 mph17.2 kmh 29.98 in1015.2 mb 0.00 in0.0 mm 0.00 in0.0 mm 0.00 in0.0 mm
08:35 PM 54.1°F12.3°C 48.4°F9.1°C 81% 5.6 mph NW9.0 kmh NW 10.7 mph17.2 kmh 29.98 in1015.2 mb 0.00 in0.0 mm 0.00 in0.0 mm 0.00 in0.0 mm
08:40 PM 54.1°F12.3°C 48.4°F9.1°C 81% 5.4 mph WNW8.7 kmh WNW 10.7 mph17.2 kmh 29.98 in1015.2 mb 0.00 in0.0 mm 0.00 in0.0 mm 0.00 in0.0 mm
08:45 PM 54.1°F12.3°C 48.4°F9.1°C 81% 5.5 mph W8.9 kmh W 10.7 mph17.2 kmh 29.98 in1015.2 mb 0.00 in0.0 mm 0.00 in0.0 mm 0.00 in0.0 mm
08:50 PM 54.0°F12.2°C 48.3°F9.1°C 81% 5.0 mph WNW8.0 kmh WNW 10.7 mph17.2 kmh 29.98 in1015.2 mb 0.00 in0.0 mm 0.00 in0.0 mm 0.00 in0.0 mm
08:55 PM 54.0°F12.2°C 48.3°F9.1°C 81% 4.2 mph NW6.8 kmh NW 7.6 mph12.2 kmh 29.98 in1015.2 mb 0.00 in0.0 mm 0.00 in0.0 mm 0.00 in0.0 mm
09:00 PM 53.8°F12.1°C 48.1°F8.9°C 81% 3.2 mph NW5.1 kmh NW 6.0 mph9.7 kmh 29.98 in1015.2 mb 0.00 in0.0 mm 0.00 in0.0 mm 0.00 in0.0 mm
09:05 PM 53.8°F12.1°C 48.1°F8.9°C 81% 3.2 mph W5.1 kmh W 6.0 mph9.7 kmh 29.98 in1015.2 mb 0.00 in0.0 mm 0.00 in0.0 mm 0.00 in0.0 mm
09:10 PM 53.6°F12.0°C 48.2°F9.0°C 82% 3.2 mph WNW5.1 kmh WNW 6.0 mph9.7 kmh 29.98 in1015.2 mb 0.00 in0.0 mm 0.00 in0.0 mm 0.00 in0.0 mm
09:15 PM 53.6°F12.0°C 48.2°F9.0°C 82% 3.2 mph WNW5.1 kmh WNW 6.0 mph9.7 kmh 29.98 in1015.2 mb 0.00 in0.0 mm 0.00 in0.0 mm 0.00 in0.0 mm
09:20 PM 53.4°F11.9°C 48.4°F9.1°C 83% 3.4 mph W5.5 kmh W 6.9 mph11.1 kmh 29.98 in1015.2 mb 0.00 in0.0 mm 0.00 in0.0 mm 0.00 in0.0 mm
09:25 PM 53.2°F11.8°C 48.5°F9.2°C 84% 3.5 mph WNW5.6 kmh WNW 6.9 mph11.1 kmh 29.98 in1015.2 mb 0.00 in0.0 mm 0.00 in0.0 mm 0.00 in0.0 mm
09:30 PM 53.2°F11.8°C 48.5°F9.2°C 84% 3.3 mph NW5.3 kmh NW 6.9 mph11.1 kmh 29.98 in1015.2 mb 0.00 in0.0 mm 0.00 in0.0 mm 0.00 in0.0 mm
09:35 PM 53.1°F11.7°C 48.4°F9.1°C 84% 3.9 mph NW6.3 kmh NW 7.6 mph12.2 kmh 29.98 in1015.2 mb 0.00 in0.0 mm 0.00 in0.0 mm 0.00 in0.0 mm
09:40 PM 52.9°F11.6°C 48.5°F9.2°C 85% 3.9 mph WNW6.3 kmh WNW 7.6 mph12.2 kmh 29.98 in1015.2 mb 0.01 in0.3 mm 0.12 in3.0 mm 0.01 in0.3 mm
09:45 PM 52.9°F11.6°C 48.5°F9.2°C 85% 3.5 mph NW5.6 kmh NW 6.0 mph9.7 kmh 29.98 in1015.2 mb 0.01 in0.3 mm 0.00 in0.0 mm 0.01 in0.3 mm
09:50 PM 52.7°F11.5°C 48.6°F9.2°C 86% 3.4 mph NW5.5 kmh NW 6.0 mph9.7 kmh 29.98 in1015.2 mb 0.01 in0.3 mm 0.00 in0.0 mm 0.01 in0.3 mm
09:55 PM 52.7°F11.5°C 48.6°F9.2°C 86% 3.3 mph NW5.3 kmh NW 5.4 mph8.7 kmh 29.98 in1015.2 mb 0.01 in0.3 mm 0.00 in0.0 mm 0.01 in0.3 mm
10:00 PM 52.5°F11.4°C 48.5°F9.2°C 86% 3.4 mph NW5.5 kmh NW 5.4 mph8.7 kmh 29.98 in1015.2 mb 0.01 in0.3 mm 0.00 in0.0 mm 0.01 in0.3 mm
10:05 PM 52.5°F11.4°C 48.8°F9.3°C 87% 2.9 mph NW4.7 kmh NW 5.4 mph8.7 kmh 29.97 in1014.9 mb 0.01 in0.3 mm 0.00 in0.0 mm 0.01 in0.3 mm
10:10 PM 52.3°F11.3°C 48.6°F9.2°C 87% 2.6 mph NW4.2 kmh NW 4.5 mph7.2 kmh 29.97 in1014.9 mb 0.01 in0.3 mm 0.00 in0.0 mm 0.01 in0.3 mm
10:15 PM 52.3°F11.3°C 48.6°F9.2°C 87% 2.4 mph NW3.9 kmh NW 4.5 mph7.2 kmh 29.97 in1014.9 mb 0.01 in0.3 mm 0.00 in0.0 mm 0.01 in0.3 mm
10:20 PM 52.2°F11.2°C 48.4°F9.1°C 87% 2.5 mph WNW4.0 kmh WNW 4.5 mph7.2 kmh 29.97 in1014.9 mb 0.01 in0.3 mm 0.00 in0.0 mm 0.01 in0.3 mm
10:25 PM 52.0°F11.1°C 48.2°F9.0°C 87% 2.1 mph W3.4 kmh W 4.5 mph7.2 kmh 29.97 in1014.9 mb 0.01 in0.3 mm 0.00 in0.0 mm 0.01 in0.3 mm
10:30 PM 52.0°F11.1°C 48.2°F9.0°C 87% 1.8 mph W2.9 kmh W 3.8 mph6.1 kmh 29.97 in1014.9 mb 0.01 in0.3 mm 0.00 in0.0 mm 0.01 in0.3 mm
10:35 PM 51.8°F11.0°C 48.4°F9.1°C 88% 1.6 mph NW2.6 kmh NW 3.1 mph5.0 kmh 29.97 in1014.9 mb 0.01 in0.3 mm 0.00 in0.0 mm 0.01 in0.3 mm
10:40 PM 51.8°F11.0°C 48.4°F9.1°C 88% 1.2 mph WNW1.9 kmh WNW 3.1 mph5.0 kmh 29.97 in1014.9 mb 0.00 in0.0 mm 0.00 in0.0 mm 0.01 in0.3 mm
10:45 PM 51.8°F11.0°C 48.4°F9.1°C 88% 0.9 mph WNW1.4 kmh WNW 3.1 mph5.0 kmh 29.96 in1014.6 mb 0.00 in0.0 mm 0.00 in0.0 mm 0.01 in0.3 mm
10:50 PM 51.8°F11.0°C 48.4°F9.1°C 88% 0.5 mph NW0.8 kmh NW 3.1 mph5.0 kmh 29.96 in1014.6 mb 0.00 in0.0 mm 0.00 in0.0 mm 0.01 in0.3 mm
10:55 PM 51.8°F11.0°C 48.4°F9.1°C 88% 0.3 mph W0.5 kmh W 2.2 mph3.5 kmh 29.96 in1014.6 mb 0.00 in0.0 mm 0.00 in0.0 mm 0.01 in0.3 mm
11:00 PM 51.8°F11.0°C 48.4°F9.1°C 88% 0.1 mph W0.2 kmh W 1.6 mph2.6 kmh 29.96 in1014.6 mb 0.01 in0.3 mm 0.01 in0.3 mm 0.02 in0.5 mm
11:05 PM 51.8°F11.0°C 48.4°F9.1°C 88% 0.1 mph W0.2 kmh W 1.6 mph2.6 kmh 29.96 in1014.6 mb 0.01 in0.3 mm 0.00 in0.0 mm 0.02 in0.5 mm
11:10 PM 51.8°F11.0°C 48.4°F9.1°C 88% 0.1 mph W0.2 kmh W 1.6 mph2.6 kmh 29.96 in1014.6 mb 0.01 in0.3 mm 0.00 in0.0 mm 0.02 in0.5 mm
11:15 PM 51.8°F11.0°C 48.4°F9.1°C 88% 0.2 mph W0.3 kmh W 2.2 mph3.5 kmh 29.96 in1014.6 mb 0.01 in0.3 mm 0.00 in0.0 mm 0.02 in0.5 mm
11:20 PM 51.8°F11.0°C 48.4°F9.1°C 88% 0.5 mph W0.8 kmh W 2.2 mph3.5 kmh 29.95 in1014.2 mb 0.01 in0.3 mm 0.00 in0.0 mm 0.02 in0.5 mm
11:25 PM 51.8°F11.0°C 48.4°F9.1°C 88% 0.7 mph W1.1 kmh W 2.2 mph3.5 kmh 29.95 in1014.2 mb 0.01 in0.3 mm 0.00 in0.0 mm 0.02 in0.5 mm
11:30 PM 51.8°F11.0°C 48.7°F9.3°C 89% 0.5 mph W0.8 kmh W 1.6 mph2.6 kmh 29.95 in1014.2 mb 0.01 in0.3 mm 0.00 in0.0 mm 0.02 in0.5 mm
11:35 PM 51.8°F11.0°C 48.7°F9.3°C 89% 0.5 mph W0.8 kmh W 2.2 mph3.5 kmh 29.95 in1014.2 mb 0.01 in0.3 mm 0.00 in0.0 mm 0.02 in0.5 mm
11:40 PM 51.8°F11.0°C 48.7°F9.3°C 89% 0.7 mph W1.1 kmh W 2.2 mph3.5 kmh 29.96 in1014.6 mb 0.01 in0.3 mm 0.00 in0.0 mm 0.02 in0.5 mm
11:45 PM 51.8°F11.0°C 48.7°F9.3°C 89% 0.6 mph W1.0 kmh W 2.2 mph3.5 kmh 29.95 in1014.2 mb 0.01 in0.3 mm 0.00 in0.0 mm 0.02 in0.5 mm
11:50 PM 51.8°F11.0°C 48.7°F9.3°C 89% 0.4 mph WNW0.6 kmh WNW 1.6 mph2.6 kmh 29.94 in1013.9 mb 0.01 in0.3 mm 0.00 in0.0 mm 0.02 in0.5 mm
11:55 PM 51.8°F11.0°C 48.7°F9.3°C 89% 0.2 mph W0.3 kmh W 2.2 mph3.5 kmh 29.94 in1013.9 mb 0.01 in0.3 mm 0.00 in0.0 mm 0.02 in0.5 mm